createdAt,value
2022-08-10T00:01:35.501Z,16.70
2022-08-10T00:04:08.476Z,16.70
2022-08-10T00:06:37.641Z,16.60
2022-08-10T00:09:09.453Z,16.70
2022-08-10T00:11:43.934Z,17.00
2022-08-10T00:14:15.459Z,16.60
2022-08-10T00:19:25.389Z,18.80
2022-08-10T00:22:16.838Z,20.20
2022-08-10T00:28:03.052Z,16.30
2022-08-10T00:30:33.914Z,16.90
2022-08-10T00:33:04.252Z,16.30
2022-08-10T00:35:33.454Z,16.30
2022-08-10T00:38:08.654Z,17.50
2022-08-10T00:40:45.056Z,16.20
2022-08-10T00:43:23.692Z,16.20
2022-08-10T00:46:00.509Z,18.20
2022-08-10T00:49:00.101Z,16.10
2022-08-10T00:51:40.488Z,16.00
2022-08-10T00:54:24.749Z,16.00
2022-08-10T00:57:17.886Z,15.90
2022-08-10T01:00:15.184Z,15.80
2022-08-10T01:02:43.997Z,15.80
2022-08-10T01:05:26.316Z,15.80
2022-08-10T01:08:17.714Z,15.80
2022-08-10T01:12:37.550Z,17.20
2022-08-10T01:14:58.200Z,15.90
2022-08-10T01:18:05.799Z,16.00
2022-08-10T01:20:40.878Z,16.00
2022-08-10T01:23:54.743Z,16.00
2022-08-10T01:26:40.890Z,15.90
2022-08-10T01:30:03.175Z,15.80
2022-08-10T01:32:58.106Z,15.80
2022-08-10T01:35:38.083Z,15.70
2022-08-10T01:38:12.697Z,15.70
2022-08-10T01:40:50.722Z,15.70
2022-08-10T01:43:22.764Z,15.70
2022-08-10T01:46:00.252Z,19.20
2022-08-10T01:48:41.304Z,16.50
2022-08-10T01:51:16.694Z,15.40
2022-08-10T01:53:54.022Z,15.50
2022-08-10T01:56:27.139Z,15.40
2022-08-10T01:59:13.016Z,15.40
2022-08-10T02:01:56.439Z,14.00
2022-08-10T02:04:43.709Z,15.30
2022-08-10T02:07:19.844Z,15.20
2022-08-10T02:10:31.636Z,15.40
2022-08-10T02:13:26.608Z,15.40
2022-08-10T02:16:01.546Z,15.50
2022-08-10T02:18:34.073Z,15.50
2022-08-10T02:21:13.483Z,18.50
2022-08-10T02:23:56.876Z,15.30
2022-08-10T02:26:30.431Z,15.20
2022-08-10T02:29:18.460Z,15.20
2022-08-10T02:34:39.835Z,12.60
2022-08-10T02:37:13.688Z,15.10
2022-08-10T02:39:43.565Z,15.00
2022-08-10T02:45:19.191Z,18.70
2022-08-10T02:45:30.781Z,14.80
2022-08-10T02:48:08.180Z,14.90
2022-08-10T02:50:41.012Z,14.90
2022-08-10T02:53:54.788Z,18.80
2022-08-10T02:56:33.296Z,14.90
2022-08-10T02:59:17.545Z,16.50
2022-08-10T03:04:57.238Z,14.80
2022-08-10T03:07:44.090Z,14.80
2022-08-10T03:10:38.053Z,14.80
2022-08-10T03:13:12.377Z,14.70
2022-08-10T03:16:15.618Z,14.60
2022-08-10T03:18:45.811Z,14.50
2022-08-10T03:21:19.975Z,14.50
2022-08-10T03:23:52.312Z,14.50
2022-08-10T03:26:25.576Z,14.50
2022-08-10T03:29:00.402Z,14.40
2022-08-10T03:31:34.370Z,14.30
2022-08-10T03:34:20.027Z,11.70
2022-08-10T03:37:04.002Z,14.70
2022-08-10T03:39:33.963Z,15.20
2022-08-10T03:42:09.574Z,14.20
2022-08-10T03:44:50.492Z,14.20
2022-08-10T03:47:23.490Z,14.10
2022-08-10T03:50:27.731Z,14.10
2022-08-10T03:53:00.044Z,14.20
2022-08-10T03:56:28.674Z,14.20
2022-08-10T03:58:45.877Z,14.20
2022-08-10T04:05:26.165Z,14.20
2022-08-10T04:08:44.788Z,14.20
2022-08-10T04:12:08.068Z,14.10
2022-08-10T04:14:55.887Z,14.10
2022-08-10T04:18:05.113Z,14.10
2022-08-10T04:20:37.398Z,14.10
2022-08-10T04:23:29.648Z,14.00
2022-08-10T04:26:00.270Z,14.00
2022-08-10T04:28:31.387Z,13.90
2022-08-10T04:31:21.818Z,14.00
2022-08-10T04:33:56.766Z,15.10
2022-08-10T04:36:29.188Z,15.90
2022-08-10T04:39:11.080Z,14.20
2022-08-10T04:41:46.177Z,14.00
2022-08-10T04:44:26.677Z,14.00
2022-08-10T04:49:55.704Z,14.10
2022-08-10T04:52:17.747Z,14.00
2022-08-10T04:54:47.005Z,14.10
2022-08-10T04:57:16.175Z,14.00
2022-08-10T04:59:53.641Z,14.00
2022-08-10T05:03:10.336Z,14.10
2022-08-10T05:05:56.852Z,14.20
2022-08-10T05:08:28.618Z,14.20
2022-08-10T05:10:57.963Z,15.30
2022-08-10T05:13:33.875Z,14.20
2022-08-10T05:16:03.087Z,14.30
2022-08-10T05:21:07.885Z,13.30
2022-08-10T05:27:45.820Z,14.60
2022-08-10T05:34:26.927Z,14.90
2022-08-10T05:36:57.502Z,15.10
2022-08-10T05:39:32.147Z,15.30
2022-08-10T05:42:03.319Z,15.40
2022-08-10T05:48:54.509Z,15.60
2022-08-10T05:55:36.670Z,15.90
2022-08-10T05:58:06.664Z,16.30
2022-08-10T06:00:58.022Z,16.70
2022-08-10T06:03:34.220Z,16.40
2022-08-10T06:10:31.057Z,16.70
2022-08-10T06:13:29.874Z,16.90
2022-08-10T06:16:08.168Z,18.60
2022-08-10T06:19:44.173Z,17.20
2022-08-10T06:22:14.063Z,17.50
2022-08-10T06:25:12.224Z,17.90
2022-08-10T06:28:27.271Z,18.10
2022-08-10T06:39:30.276Z,19.00
2022-08-10T06:42:15.506Z,19.20
2022-08-10T06:44:55.890Z,21.30
2022-08-10T06:47:30.083Z,22.70
2022-08-10T06:50:08.860Z,23.20
2022-08-10T06:56:55.795Z,20.20
2022-08-10T07:03:48.004Z,20.70
2022-08-10T07:06:20.263Z,20.70
2022-08-10T07:13:03.518Z,20.90
2022-08-10T07:19:50.263Z,21.40
2022-08-10T07:26:23.231Z,21.90
2022-08-10T07:28:54.863Z,22.00
2022-08-10T07:32:02.582Z,23.40
2022-08-10T07:34:48.625Z,21.90
2022-08-10T07:37:26.868Z,21.80
2022-08-10T07:40:09.256Z,22.10
2022-08-10T07:42:54.987Z,22.30
2022-08-10T07:45:35.893Z,22.40
2022-08-10T07:48:13.031Z,22.60
2022-08-10T07:51:04.479Z,26.00
2022-08-10T07:53:47.345Z,22.60
2022-08-10T07:57:07.375Z,25.20
2022-08-10T08:00:14.734Z,22.50
2022-08-10T08:03:25.110Z,22.60
2022-08-10T08:06:03.395Z,22.70
2022-08-10T08:08:46.248Z,22.80
2022-08-10T08:19:35.365Z,23.30
2022-08-10T08:24:08.885Z,23.20
2022-08-10T08:25:14.404Z,24.50
2022-08-10T08:28:46.600Z,23.40
2022-08-10T08:35:22.182Z,23.60
2022-08-10T08:38:29.910Z,23.90
2022-08-10T08:41:32.868Z,24.00
2022-08-10T08:44:12.302Z,23.80
2022-08-10T08:47:33.685Z,23.80
2022-08-10T08:50:28.054Z,23.90
2022-08-10T08:54:02.284Z,24.00
2022-08-10T08:56:50.150Z,24.10
2022-08-10T08:59:52.217Z,26.40
2022-08-10T09:03:27.961Z,24.50
2022-08-10T09:06:23.564Z,24.50
2022-08-10T09:13:11.748Z,24.80
2022-08-10T09:17:05.994Z,24.50
2022-08-10T09:19:49.784Z,24.60
2022-08-10T09:22:40.317Z,26.70
2022-08-10T09:29:27.989Z,25.30
2022-08-10T09:35:39.897Z,24.80
2022-08-10T09:36:24.753Z,24.70
2022-08-10T09:38:20.378Z,24.90
2022-08-10T09:41:03.099Z,25.00
2022-08-10T09:43:47.489Z,27.40
2022-08-10T09:46:31.054Z,25.10
2022-08-10T09:49:09.875Z,26.40
2022-08-10T09:51:47.290Z,27.50
2022-08-10T09:54:45.133Z,25.60
2022-08-10T09:57:44.048Z,25.60
2022-08-10T10:00:13.236Z,25.40
2022-08-10T10:02:59.561Z,25.50
2022-08-10T10:06:26.809Z,27.00
2022-08-10T10:09:10.348Z,25.40
2022-08-10T10:11:55.610Z,25.50
2022-08-10T10:14:57.279Z,25.40
2022-08-10T10:17:50.092Z,25.30
2022-08-10T10:20:31.862Z,28.10
2022-08-10T10:23:13.971Z,25.70
2022-08-10T10:26:30.745Z,26.60
2022-08-10T10:32:16.955Z,24.20
2022-08-10T10:35:34.002Z,25.60
2022-08-10T10:38:35.737Z,25.70
2022-08-10T10:42:42.160Z,25.50
2022-08-10T10:45:20.806Z,25.60
2022-08-10T10:48:04.655Z,26.90
2022-08-10T10:51:10.269Z,26.10
2022-08-10T10:54:20.893Z,27.00
2022-08-10T10:58:00.272Z,25.70
2022-08-10T11:00:14.801Z,25.80
2022-08-10T11:03:04.795Z,27.00
2022-08-10T11:06:40.426Z,26.20
2022-08-10T11:10:33.427Z,26.20
2022-08-10T11:14:27.039Z,26.20
2022-08-10T11:16:26.472Z,26.00
2022-08-10T11:19:00.631Z,26.00
2022-08-10T11:22:03.220Z,25.90
2022-08-10T11:25:13.787Z,25.90
2022-08-10T11:28:24.619Z,26.20
2022-08-10T11:39:16.594Z,26.50
2022-08-10T11:42:11.988Z,28.90
2022-08-10T11:44:52.280Z,26.50
2022-08-10T11:48:53.823Z,26.90
2022-08-10T11:51:11.840Z,26.80
2022-08-10T11:54:42.123Z,27.00
2022-08-10T11:58:26.918Z,27.00
2022-08-10T12:01:03.147Z,27.00
2022-08-10T12:03:35.118Z,26.80
2022-08-10T12:06:54.309Z,29.40
2022-08-10T12:10:13.739Z,27.00
2022-08-10T12:13:05.847Z,26.80
2022-08-10T12:15:42.369Z,28.90
2022-08-10T12:19:00.080Z,27.30
2022-08-10T12:25:56.014Z,26.90
2022-08-10T12:29:31.159Z,26.80
2022-08-10T12:36:21.079Z,27.00
2022-08-10T12:39:08.952Z,26.90
2022-08-10T12:41:46.050Z,27.90
2022-08-10T12:44:40.974Z,29.50
2022-08-10T12:47:23.503Z,27.80
2022-08-10T12:50:29.227Z,26.80
2022-08-10T12:53:06.442Z,27.40
2022-08-10T12:56:39.969Z,27.00
2022-08-10T12:59:13.069Z,27.30
2022-08-10T13:02:09.785Z,27.70
2022-08-10T13:09:13.200Z,27.30
2022-08-10T13:15:51.465Z,27.40
2022-08-10T13:19:21.903Z,29.10
2022-08-10T13:26:05.127Z,27.40
2022-08-10T13:28:45.560Z,27.80
2022-08-10T13:31:19.551Z,27.70
2022-08-10T13:34:40.882Z,27.60
2022-08-10T13:36:43.003Z,27.70
2022-08-10T13:43:34.243Z,27.90
2022-08-10T13:46:04.015Z,28.20
2022-08-10T13:48:36.092Z,28.20
2022-08-10T13:51:10.169Z,29.00
2022-08-10T14:01:52.554Z,29.10
2022-08-10T14:08:52.072Z,29.00
2022-08-10T14:11:34.136Z,28.90
2022-08-10T14:14:06.067Z,29.00
2022-08-10T14:16:35.843Z,28.90
2022-08-10T14:19:15.044Z,28.70
2022-08-10T14:21:44.527Z,28.60
2022-08-10T14:24:23.533Z,28.60
2022-08-10T14:27:00.755Z,28.80
2022-08-10T14:29:30.569Z,28.60
2022-08-10T14:32:02.905Z,28.60
2022-08-10T14:36:14.827Z,28.80
2022-08-10T14:37:37.825Z,28.90
2022-08-10T14:40:11.565Z,29.10
2022-08-10T14:42:49.327Z,29.20
2022-08-10T14:45:25.143Z,29.80
2022-08-10T14:48:01.219Z,29.20
2022-08-10T14:50:34.533Z,28.70
2022-08-10T14:53:10.040Z,28.40
2022-08-10T14:55:59.233Z,28.60
2022-08-10T14:58:34.874Z,28.70
2022-08-10T15:02:00.001Z,29.20
2022-08-10T15:04:28.612Z,29.00
2022-08-10T15:07:23.876Z,26.00
2022-08-10T15:10:00.081Z,28.70
2022-08-10T15:12:33.667Z,30.40
2022-08-10T15:15:04.050Z,28.60
2022-08-10T15:17:37.393Z,29.60
2022-08-10T15:20:15.071Z,28.80
2022-08-10T15:22:51.078Z,28.70
2022-08-10T15:25:25.299Z,29.10
2022-08-10T15:28:04.282Z,27.40
2022-08-10T15:30:43.006Z,28.90
2022-08-10T15:34:02.052Z,28.40
2022-08-10T15:37:01.965Z,29.30
2022-08-10T15:40:24.508Z,28.40
2022-08-10T15:42:38.182Z,30.00
2022-08-10T15:45:19.751Z,28.20
2022-08-10T15:48:07.961Z,27.90
2022-08-10T15:50:42.910Z,27.90
2022-08-10T15:53:27.684Z,28.00
2022-08-10T15:57:11.831Z,27.80
2022-08-10T16:00:45.669Z,27.60
2022-08-10T16:04:13.828Z,27.50
2022-08-10T16:10:59.048Z,27.30
2022-08-10T16:14:08.983Z,27.10
2022-08-10T16:16:39.495Z,27.20
2022-08-10T16:22:03.384Z,29.20
2022-08-10T16:25:04.273Z,28.90
2022-08-10T16:27:34.936Z,29.40
2022-08-10T16:33:12.779Z,27.00
2022-08-10T16:35:49.814Z,27.90
2022-08-10T16:38:28.628Z,27.00
2022-08-10T16:40:59.229Z,27.90
2022-08-10T16:43:33.621Z,29.70
2022-08-10T16:46:14.906Z,27.80
2022-08-10T16:48:51.124Z,26.70
2022-08-10T16:51:23.543Z,27.60
2022-08-10T16:54:02.816Z,26.70
2022-08-10T17:02:11.004Z,26.70
2022-08-10T17:04:48.350Z,26.60
2022-08-10T17:11:56.627Z,26.40
2022-08-10T17:14:41.982Z,26.40
2022-08-10T17:17:33.128Z,27.40
2022-08-10T17:20:31.141Z,25.50
2022-08-10T17:23:07.147Z,26.40
2022-08-10T17:25:45.906Z,27.30
2022-08-10T17:28:59.492Z,28.90
2022-08-10T17:44:04.302Z,26.50
2022-08-10T17:51:00.521Z,25.90
2022-08-10T17:57:38.518Z,28.50
2022-08-10T18:29:01.204Z,24.80
2022-08-10T18:44:49.823Z,23.90
2022-08-10T18:47:59.393Z,23.60
2022-08-10T18:53:54.807Z,24.50
2022-08-10T18:57:11.353Z,23.20
2022-08-10T19:11:09.856Z,22.50
2022-08-10T19:17:24.379Z,23.30
2022-08-10T19:24:39.192Z,22.00
2022-08-10T19:27:39.714Z,24.80
2022-08-10T19:33:42.567Z,22.00
2022-08-10T19:58:29.972Z,21.30
2022-08-10T20:01:55.865Z,22.20
2022-08-10T20:04:41.050Z,21.30
2022-08-10T20:07:33.051Z,21.00
2022-08-10T20:10:29.783Z,23.50
2022-08-10T20:13:24.544Z,20.90
2022-08-10T20:16:03.261Z,24.00
2022-08-10T20:23:02.002Z,20.70
2022-08-10T20:41:46.043Z,20.20
2022-08-10T20:44:33.403Z,20.30
2022-08-10T20:47:24.849Z,20.30
2022-08-10T20:50:05.081Z,21.00
2022-08-10T20:52:39.668Z,21.60
2022-08-10T20:59:08.821Z,19.50
2022-08-10T21:02:11.306Z,20.10
2022-08-10T21:05:49.431Z,20.00
2022-08-10T21:08:46.259Z,19.90
2022-08-10T21:11:33.661Z,19.90
2022-08-10T21:18:32.742Z,19.80
2022-08-10T21:25:42.301Z,19.80
2022-08-10T21:32:44.656Z,19.60
2022-08-10T21:39:49.944Z,19.60
2022-08-10T21:43:44.717Z,20.20
2022-08-10T21:46:54.613Z,19.50
2022-08-10T21:50:46.047Z,21.00
2022-08-10T21:57:46.623Z,19.50
2022-08-10T22:01:39.433Z,21.00
2022-08-10T22:08:44.388Z,19.30
2022-08-10T22:16:03.666Z,19.10
2022-08-10T22:19:20.699Z,18.90
2022-08-10T22:26:32.392Z,18.70
2022-08-10T22:29:42.281Z,18.70
2022-08-10T22:32:44.198Z,18.80
2022-08-10T22:36:03.644Z,21.10
2022-08-10T22:39:13.012Z,18.30
2022-08-10T22:42:14.586Z,17.90
2022-08-10T22:45:05.858Z,18.10
2022-08-10T22:47:57.767Z,17.90
2022-08-10T22:54:54.153Z,17.80
2022-08-10T23:02:08.467Z,17.90
2022-08-10T23:04:54.463Z,17.80
2022-08-10T23:07:28.196Z,20.50
2022-08-10T23:10:18.977Z,17.70
2022-08-10T23:17:14.427Z,17.70
2022-08-10T23:20:25.335Z,17.70
2022-08-10T23:23:09.569Z,17.60
2022-08-10T23:25:57.298Z,18.20
2022-08-10T23:29:12.312Z,17.50
2022-08-10T23:32:06.494Z,17.50
2022-08-10T23:34:40.247Z,17.40
2022-08-10T23:37:11.478Z,17.30
2022-08-10T23:39:46.702Z,17.30
2022-08-10T23:42:21.117Z,17.20
2022-08-10T23:44:54.497Z,17.20
2022-08-10T23:51:55.078Z,17.10
2022-08-10T23:54:38.121Z,17.60
2022-08-10T23:57:15.184Z,17.50
